createdAt,value
2019-04-05T00:01:15.251Z,33.80
2019-04-05T00:03:54.519Z,34.98
2019-04-05T00:06:24.798Z,33.90
2019-04-05T00:08:55.161Z,36.15
2019-04-05T00:11:25.533Z,34.45
2019-04-05T00:13:58.440Z,34.08
2019-04-05T00:16:30.414Z,33.95
2019-04-05T00:19:00.715Z,33.50
2019-04-05T00:21:31.055Z,34.75
2019-04-05T00:24:01.304Z,33.95
2019-04-05T00:26:34.914Z,33.13
2019-04-05T00:29:08.111Z,31.90
2019-04-05T00:31:40.575Z,33.35
2019-04-05T00:34:14.608Z,35.63
2019-04-05T00:36:44.806Z,32.73
2019-04-05T00:39:14.944Z,33.75
2019-04-05T00:41:45.118Z,31.30
2019-04-05T00:44:15.290Z,32.17
2019-04-05T00:46:48.507Z,31.90
2019-04-05T00:49:18.634Z,31.57
2019-04-05T00:51:48.785Z,31.75
2019-04-05T00:54:19.034Z,33.05
2019-04-05T00:56:49.226Z,32.85
2019-04-05T00:59:19.407Z,33.50
2019-04-05T01:01:49.575Z,32.78
2019-04-05T01:04:19.724Z,34.83
2019-04-05T01:06:49.867Z,35.68
2019-04-05T01:09:20.001Z,33.78
2019-04-05T01:11:50.568Z,31.42
2019-04-05T01:14:20.843Z,34.63
2019-04-05T01:16:50.988Z,31.45
2019-04-05T01:19:21.884Z,33.28
2019-04-05T01:21:53.542Z,32.10
2019-04-05T01:24:24.996Z,32.40
2019-04-05T01:26:56.270Z,33.90
2019-04-05T01:29:26.475Z,33.13
2019-04-05T01:31:56.659Z,33.18
2019-04-05T01:34:28.640Z,36.10
2019-04-05T01:36:59.233Z,33.18
2019-04-05T01:39:29.352Z,33.28
2019-04-05T01:41:59.771Z,31.48
2019-04-05T01:44:31.332Z,34.35
2019-04-05T01:47:02.514Z,36.10
2019-04-05T01:49:32.650Z,32.90
2019-04-05T01:52:02.768Z,32.15
2019-04-05T01:54:32.998Z,30.92
2019-04-05T01:57:04.327Z,33.33
2019-04-05T01:59:34.689Z,33.58
2019-04-05T02:02:04.910Z,34.85
2019-04-05T02:04:35.627Z,33.15
2019-04-05T02:07:05.797Z,32.95
2019-04-05T02:09:36.621Z,31.57
2019-04-05T02:12:06.780Z,33.40
2019-04-05T02:14:36.947Z,33.13
2019-04-05T02:17:07.964Z,33.02
2019-04-05T02:19:39.286Z,33.18
2019-04-05T02:22:09.716Z,34.20
2019-04-05T02:24:39.870Z,37.08
2019-04-05T02:27:10.178Z,34.92
2019-04-05T02:29:41.316Z,35.03
2019-04-05T02:32:11.546Z,35.28
2019-04-05T02:34:41.659Z,35.33
2019-04-05T02:37:11.825Z,36.40
2019-04-05T02:39:42.046Z,36.20
2019-04-05T02:42:13.827Z,34.10
2019-04-05T02:44:49.201Z,35.13
2019-04-05T02:47:19.888Z,36.48
2019-04-05T02:49:52.477Z,33.38
2019-04-05T02:52:23.473Z,34.80
2019-04-05T02:54:55.566Z,33.70
2019-04-05T02:57:33.078Z,34.45
2019-04-05T03:00:03.459Z,34.27
2019-04-05T03:02:36.457Z,32.33
2019-04-05T03:05:06.667Z,33.85
2019-04-05T03:07:37.179Z,34.75
2019-04-05T03:10:07.746Z,34.67
2019-04-05T03:12:42.654Z,34.40
2019-04-05T03:15:13.737Z,34.18
2019-04-05T03:17:43.937Z,35.80
2019-04-05T03:20:14.049Z,33.95
2019-04-05T03:22:44.244Z,31.90
2019-04-05T03:25:14.475Z,34.73
2019-04-05T03:27:47.583Z,31.97
2019-04-05T03:30:18.356Z,33.33
2019-04-05T03:32:49.189Z,32.63
2019-04-05T03:35:22.835Z,34.45
2019-04-05T03:37:53.011Z,33.85
2019-04-05T03:40:23.870Z,31.73
2019-04-05T03:42:54.213Z,35.38
2019-04-05T03:45:26.367Z,31.97
2019-04-05T03:47:56.608Z,33.85
2019-04-05T03:50:34.409Z,32.48
2019-04-05T03:53:08.037Z,32.98
2019-04-05T03:55:38.162Z,34.18
2019-04-05T03:58:08.814Z,36.10
2019-04-05T04:00:38.932Z,33.38
2019-04-05T04:03:09.044Z,35.78
2019-04-05T04:05:39.402Z,34.05
2019-04-05T04:08:13.773Z,34.73
2019-04-05T04:10:44.281Z,38.08
2019-04-05T04:13:14.441Z,34.85
2019-04-05T04:15:45.097Z,37.63
2019-04-05T04:18:17.076Z,38.25
2019-04-05T04:20:50.570Z,37.13
2019-04-05T04:23:24.195Z,37.67
2019-04-05T04:25:55.051Z,35.23
2019-04-05T04:28:25.864Z,32.98
2019-04-05T04:31:04.758Z,33.50
2019-04-05T04:33:35.054Z,36.80
2019-04-05T04:36:07.778Z,36.45
2019-04-05T04:38:43.036Z,37.15
2019-04-05T04:41:13.699Z,34.88
2019-04-05T04:43:47.461Z,34.27
2019-04-05T04:46:19.229Z,35.03
2019-04-05T04:48:51.184Z,33.53
2019-04-05T04:51:28.430Z,36.05
2019-04-05T04:54:06.318Z,35.40
2019-04-05T04:56:36.567Z,35.52
2019-04-05T04:59:06.775Z,35.58
2019-04-05T05:01:37.345Z,33.35
2019-04-05T05:04:11.339Z,33.85
2019-04-05T05:06:42.139Z,34.40
2019-04-05T05:09:13.870Z,33.40
2019-04-05T05:11:44.148Z,34.38
2019-04-05T05:14:14.683Z,34.70
2019-04-05T05:16:55.195Z,33.58
2019-04-05T05:19:32.228Z,31.48
2019-04-05T05:24:49.209Z,34.23
2019-04-05T05:27:20.292Z,31.65
2019-04-05T05:29:52.552Z,30.50
2019-04-05T05:32:25.394Z,33.13
2019-04-05T05:35:01.844Z,32.60
2019-04-05T05:37:27.942Z,32.98
2019-04-05T05:40:00.986Z,32.30
2019-04-05T05:42:31.223Z,31.05
2019-04-05T05:45:01.540Z,32.17
2019-04-05T05:47:32.803Z,32.67
2019-04-05T05:50:08.853Z,31.57
2019-04-05T05:52:40.207Z,29.32
2019-04-05T05:55:10.605Z,32.65
2019-04-05T05:57:40.817Z,30.68
2019-04-05T06:00:12.183Z,30.35
2019-04-05T06:02:42.433Z,31.48
2019-04-05T06:05:12.880Z,31.85
2019-04-05T06:07:43.148Z,31.12
2019-04-05T06:10:13.495Z,31.80
2019-04-05T06:12:43.852Z,31.00
2019-04-05T06:15:15.493Z,32.10
2019-04-05T06:17:45.693Z,29.85
2019-04-05T06:20:16.121Z,30.90
2019-04-05T06:22:47.709Z,32.50
2019-04-05T06:25:19.010Z,30.55
2019-04-05T06:27:49.405Z,29.98
2019-04-05T06:30:19.776Z,33.80
2019-04-05T06:32:50.016Z,32.98
2019-04-05T06:35:20.157Z,31.10
2019-04-05T06:37:50.419Z,32.40
2019-04-05T06:40:20.661Z,33.28
2019-04-05T06:42:50.943Z,31.73
2019-04-05T06:45:21.272Z,35.50
2019-04-05T06:47:51.617Z,31.40
2019-04-05T06:50:22.111Z,33.63
2019-04-05T06:52:52.400Z,34.53
2019-04-05T06:55:22.619Z,35.65
2019-04-05T06:57:52.994Z,33.18
2019-04-05T07:00:29.541Z,33.90
2019-04-05T07:03:00.213Z,34.65
2019-04-05T07:05:31.482Z,36.35
2019-04-05T07:08:01.827Z,32.65
2019-04-05T07:10:32.324Z,35.95
2019-04-05T07:13:02.983Z,34.90
2019-04-05T07:15:33.215Z,36.63
2019-04-05T07:18:03.528Z,34.10
2019-04-05T07:20:33.832Z,36.45
2019-04-05T07:23:04.103Z,35.85
2019-04-05T07:25:34.491Z,36.93
2019-04-05T07:28:04.660Z,38.63
2019-04-05T07:30:34.929Z,36.40
2019-04-05T07:33:05.309Z,36.30
2019-04-05T07:35:35.511Z,37.30
2019-04-05T07:38:06.093Z,33.95
2019-04-05T07:40:36.428Z,36.17
2019-04-05T07:43:09.721Z,36.90
2019-04-05T07:45:39.984Z,37.85
2019-04-05T07:48:10.230Z,37.35
2019-04-05T07:50:40.599Z,35.63
2019-04-05T07:53:11.190Z,36.75
2019-04-05T07:55:41.376Z,38.70
2019-04-05T07:58:11.557Z,37.93
2019-04-05T08:00:45.821Z,34.50
2019-04-05T08:03:16.645Z,36.75
2019-04-05T08:05:47.970Z,37.10
2019-04-05T08:08:30.956Z,37.42
2019-04-05T08:11:02.332Z,35.58
2019-04-05T08:13:36.590Z,36.98
2019-04-05T08:16:06.893Z,37.45
2019-04-05T08:18:37.038Z,36.08
2019-04-05T08:21:07.350Z,37.15
2019-04-05T08:23:37.526Z,35.98
2019-04-05T08:26:07.750Z,38.42
2019-04-05T08:28:38.027Z,35.60
2019-04-05T08:31:10.805Z,37.28
2019-04-05T08:33:40.506Z,34.73
2019-04-05T08:36:10.761Z,34.48
2019-04-05T08:38:40.983Z,36.50
2019-04-05T08:41:11.203Z,35.78
2019-04-05T08:43:41.470Z,37.15
2019-04-05T08:46:11.716Z,34.95
2019-04-05T08:48:41.867Z,33.90
2019-04-05T08:51:12.133Z,35.65
2019-04-05T08:53:42.284Z,33.90
2019-04-05T08:56:13.573Z,34.40
2019-04-05T08:58:43.718Z,33.95
2019-04-05T09:01:14.024Z,30.57
2019-04-05T09:03:44.262Z,29.87
2019-04-05T09:06:14.521Z,30.05
2019-04-05T09:08:44.969Z,30.95
2019-04-05T09:11:15.185Z,29.18
2019-04-05T09:13:45.354Z,29.77
2019-04-05T09:16:15.671Z,27.17
2019-04-05T09:18:45.834Z,27.90
2019-04-05T09:21:17.783Z,27.90
2019-04-05T09:23:49.060Z,27.22
2019-04-05T09:26:21.007Z,25.40
2019-04-05T09:28:51.229Z,25.10
2019-04-05T09:31:21.426Z,23.90
2019-04-05T09:33:56.073Z,26.60
2019-04-05T09:36:29.729Z,30.05
2019-04-05T09:39:00.053Z,27.55
2019-04-05T09:41:30.249Z,27.62
2019-04-05T09:44:00.643Z,23.83
2019-04-05T09:46:45.487Z,22.15
2019-04-05T09:49:03.337Z,25.23
2019-04-05T09:51:34.717Z,24.47
2019-04-05T09:54:04.916Z,25.05
2019-04-05T09:56:35.107Z,24.35
2019-04-05T09:59:05.662Z,24.32
2019-04-05T10:01:36.031Z,24.07
2019-04-05T10:04:06.219Z,24.27
2019-04-05T10:06:36.397Z,23.35
2019-04-05T10:09:08.979Z,23.22
2019-04-05T10:11:39.251Z,25.23
2019-04-05T10:14:09.517Z,25.43
2019-04-05T10:16:39.666Z,23.92
2019-04-05T10:19:10.061Z,25.95
2019-04-05T10:21:40.337Z,26.82
2019-04-05T10:24:10.612Z,24.43
2019-04-05T10:26:40.835Z,26.45
2019-04-05T10:29:11.053Z,25.50
2019-04-05T10:31:41.258Z,24.85
2019-04-05T10:34:11.498Z,25.15
2019-04-05T10:36:41.665Z,22.40
2019-04-05T10:39:11.941Z,24.67
2019-04-05T10:41:42.205Z,22.70
2019-04-05T10:44:13.455Z,23.10
2019-04-05T10:46:43.632Z,24.70
2019-04-05T10:49:15.265Z,22.00
2019-04-05T10:51:46.595Z,23.40
2019-04-05T10:54:16.771Z,25.45
2019-04-05T10:56:47.019Z,22.87
2019-04-05T10:59:17.206Z,24.75
2019-04-05T11:01:47.427Z,21.82
2019-04-05T11:04:17.580Z,23.47
2019-04-05T11:06:47.858Z,23.57
2019-04-05T11:09:19.147Z,22.02
2019-04-05T11:12:30.703Z,24.40
2019-04-05T11:15:02.248Z,23.32
2019-04-05T11:17:33.436Z,24.27
2019-04-05T11:20:20.228Z,22.62
2019-04-05T11:22:38.022Z,23.07
2019-04-05T11:25:08.885Z,23.20
2019-04-05T11:27:39.470Z,23.30
2019-04-05T11:30:11.396Z,22.85
2019-04-05T11:32:41.865Z,23.90
2019-04-05T11:35:14.954Z,23.05
2019-04-05T11:37:44.662Z,22.95
2019-04-05T11:40:15.506Z,24.30
2019-04-05T11:42:48.768Z,24.07
2019-04-05T11:45:20.266Z,24.55
2019-04-05T11:47:53.687Z,22.58
2019-04-05T11:50:34.567Z,23.22
2019-04-05T11:52:57.064Z,23.85
2019-04-05T11:55:27.270Z,23.12
2019-04-05T11:57:58.628Z,24.82
2019-04-05T12:00:53.413Z,23.95
2019-04-05T12:03:23.954Z,23.92
2019-04-05T12:05:54.785Z,24.15
2019-04-05T12:08:26.772Z,26.07
2019-04-05T12:10:59.113Z,24.85
2019-04-05T12:13:32.323Z,23.60
2019-04-05T12:16:03.673Z,26.15
2019-04-05T12:18:36.192Z,24.80
2019-04-05T12:21:06.773Z,25.37
2019-04-05T12:23:41.271Z,23.30
2019-04-05T12:26:13.470Z,24.32
2019-04-05T12:28:44.416Z,25.80
2019-04-05T12:31:15.732Z,23.75
2019-04-05T12:33:49.185Z,26.45
2019-04-05T12:36:22.277Z,24.27
2019-04-05T12:38:54.363Z,23.98
2019-04-05T12:41:25.595Z,25.05
2019-04-05T12:43:56.572Z,23.42
2019-04-05T12:46:28.353Z,26.35
2019-04-05T12:48:58.861Z,26.30
2019-04-05T12:51:29.752Z,25.20
2019-04-05T12:54:00.527Z,23.98
2019-04-05T12:56:31.252Z,26.30
2019-04-05T12:59:02.662Z,27.35
2019-04-05T13:01:38.905Z,26.80
2019-04-05T13:04:11.761Z,27.50
2019-04-05T13:06:45.050Z,27.02
2019-04-05T13:09:21.385Z,28.23
2019-04-05T13:11:57.525Z,28.10
2019-04-05T13:14:31.438Z,29.02
2019-04-05T13:17:02.990Z,29.65
2019-04-05T13:19:36.491Z,28.75
2019-04-05T13:22:12.495Z,30.45
2019-04-05T13:24:42.726Z,28.60
2019-04-05T13:27:16.770Z,30.48
2019-04-05T13:29:49.203Z,27.45
2019-04-05T13:32:22.368Z,29.18
2019-04-05T13:34:53.578Z,29.45
2019-04-05T13:37:25.801Z,29.15
2019-04-05T13:39:57.670Z,31.68
2019-04-05T13:42:31.530Z,28.70
2019-04-05T13:45:03.847Z,30.48
2019-04-05T13:47:37.884Z,28.47
2019-04-05T13:50:11.426Z,28.75
2019-04-05T13:52:44.460Z,25.72
2019-04-05T13:55:16.855Z,26.97
2019-04-05T13:57:51.391Z,29.57
2019-04-05T14:00:21.951Z,27.32
2019-04-05T14:02:52.523Z,29.40
2019-04-05T14:05:22.870Z,26.93
2019-04-05T14:08:09.777Z,27.65
2019-04-05T14:10:31.204Z,27.80
2019-04-05T14:13:01.331Z,28.12
2019-04-05T14:15:31.653Z,28.27
2019-04-05T14:18:02.071Z,26.85
2019-04-05T14:20:32.309Z,27.60
2019-04-05T14:23:02.605Z,27.80
2019-04-05T14:25:32.767Z,28.12
2019-04-05T14:28:04.649Z,27.15
2019-04-05T14:30:35.021Z,27.02
2019-04-05T14:33:05.245Z,28.77
2019-04-05T14:35:35.415Z,29.57
2019-04-05T14:38:05.635Z,29.85
2019-04-05T14:40:36.909Z,29.65
2019-04-05T14:43:07.113Z,28.65
2019-04-05T14:45:37.287Z,28.27
2019-04-05T14:48:07.575Z,27.73
2019-04-05T14:50:37.840Z,30.32
2019-04-05T14:53:08.045Z,27.67
2019-04-05T14:55:38.265Z,29.72
2019-04-05T14:58:10.492Z,27.35
2019-04-05T15:00:40.343Z,28.85
2019-04-05T15:03:10.795Z,28.40
2019-04-05T15:05:41.071Z,28.17
2019-04-05T15:08:11.399Z,27.52
2019-04-05T15:10:41.607Z,29.40
2019-04-05T15:13:11.813Z,28.25
2019-04-05T15:15:42.038Z,28.15
2019-04-05T15:18:12.236Z,29.00
2019-04-05T15:20:42.449Z,28.75
2019-04-05T15:23:14.049Z,28.07
2019-04-05T15:25:44.456Z,29.75
2019-04-05T15:28:16.965Z,29.30
2019-04-05T15:30:49.691Z,30.15
2019-04-05T15:33:21.139Z,29.95
2019-04-05T15:35:51.580Z,28.17
2019-04-05T15:38:22.830Z,29.57
2019-04-05T15:40:53.202Z,30.97
2019-04-05T15:43:23.624Z,31.02
2019-04-05T15:45:53.903Z,29.57
2019-04-05T15:48:24.168Z,28.77
2019-04-05T15:50:57.677Z,30.48
2019-04-05T15:53:26.344Z,32.35
2019-04-05T15:55:57.205Z,32.48
2019-04-05T15:58:27.377Z,29.90
2019-04-05T16:00:57.782Z,32.15
2019-04-05T16:03:27.974Z,29.50
2019-04-05T16:05:58.483Z,30.88
2019-04-05T16:08:28.987Z,33.65
2019-04-05T16:10:59.402Z,30.35
2019-04-05T16:13:30.067Z,32.78
2019-04-05T16:16:00.387Z,33.42
2019-04-05T16:18:30.586Z,34.88
2019-04-05T16:21:00.756Z,32.23
2019-04-05T16:23:31.324Z,32.85
2019-04-05T16:26:01.506Z,34.25
2019-04-05T16:28:31.918Z,31.68
2019-04-05T16:31:02.052Z,32.13
2019-04-05T16:33:32.239Z,32.28
2019-04-05T16:36:02.618Z,33.58
2019-04-05T16:38:33.197Z,33.02
2019-04-05T16:41:03.491Z,33.90
2019-04-05T16:43:33.874Z,32.53
2019-04-05T16:46:04.133Z,33.55
2019-04-05T16:48:34.485Z,33.78
2019-04-05T16:51:04.839Z,35.52
2019-04-05T16:53:35.138Z,34.80
2019-04-05T16:56:05.327Z,34.53
2019-04-05T16:58:35.702Z,37.42
2019-04-05T17:01:05.912Z,36.53
2019-04-05T17:03:36.196Z,36.93
2019-04-05T17:06:06.492Z,34.92
2019-04-05T17:08:36.814Z,34.75
2019-04-05T17:11:12.808Z,39.50
2019-04-05T17:13:44.280Z,36.42
2019-04-05T17:16:14.880Z,36.65
2019-04-05T17:18:45.107Z,36.38
2019-04-05T17:21:15.264Z,36.17
2019-04-05T17:23:45.672Z,37.48
2019-04-05T17:26:15.891Z,36.23
2019-04-05T17:28:46.271Z,38.35
2019-04-05T17:31:16.519Z,37.90
2019-04-05T17:33:46.992Z,35.88
2019-04-05T17:36:17.143Z,38.40
2019-04-05T17:38:47.425Z,38.30
2019-04-05T17:41:17.593Z,37.93
2019-04-05T17:43:47.840Z,37.78
2019-04-05T17:46:18.087Z,36.80
2019-04-05T17:48:51.968Z,36.88
2019-04-05T17:51:23.508Z,37.70
2019-04-05T17:53:54.081Z,37.75
2019-04-05T17:56:24.491Z,38.25
2019-04-05T17:58:56.684Z,39.65
2019-04-05T18:01:26.850Z,40.20
2019-04-05T18:03:57.235Z,37.15
2019-04-05T18:06:28.488Z,40.75
2019-04-05T18:08:58.859Z,37.35
2019-04-05T18:11:29.424Z,40.65
2019-04-05T18:13:59.700Z,39.70
2019-04-05T18:16:30.251Z,40.45
2019-04-05T18:19:01.559Z,38.28
2019-04-05T18:21:31.714Z,38.23
2019-04-05T18:24:02.111Z,36.93
2019-04-05T18:26:32.336Z,36.88
2019-04-05T18:29:05.748Z,36.58
2019-04-05T18:31:35.989Z,38.80
2019-04-05T18:34:06.310Z,39.83
2019-04-05T18:36:36.452Z,40.35
2019-04-05T18:39:08.301Z,37.50
2019-04-05T18:41:38.648Z,38.30
2019-04-05T18:44:08.850Z,41.08
2019-04-05T18:46:39.051Z,38.38
2019-04-05T18:49:09.191Z,37.33
2019-04-05T18:51:39.366Z,38.42
2019-04-05T18:54:09.597Z,38.17
2019-04-05T18:56:39.804Z,40.33
2019-04-05T18:59:09.958Z,41.92
2019-04-05T19:01:40.263Z,39.08
2019-04-05T19:04:10.429Z,40.55
2019-04-05T19:06:40.988Z,38.85
2019-04-05T19:09:12.219Z,40.65
2019-04-05T19:11:43.462Z,42.65
2019-04-05T19:14:13.732Z,39.73
2019-04-05T19:16:43.882Z,39.23
2019-04-05T19:19:17.469Z,37.90
2019-04-05T19:21:46.013Z,35.43
2019-04-05T19:24:16.136Z,38.92
2019-04-05T19:26:46.473Z,38.00
2019-04-05T19:29:16.637Z,38.50
2019-04-05T19:49:30.561Z,39.80
2019-04-05T19:52:00.756Z,38.63
2019-04-05T19:54:30.872Z,42.27
2019-04-05T19:57:01.114Z,39.65
2019-04-05T19:59:31.197Z,43.65
2019-04-05T20:02:01.417Z,42.30
2019-04-05T20:04:31.604Z,43.15
2019-04-05T20:07:01.864Z,44.80
2019-04-05T20:09:32.194Z,41.85
2019-04-05T20:12:02.487Z,43.33
2019-04-05T20:14:32.749Z,43.58
2019-04-05T20:17:02.945Z,44.67
2019-04-05T20:19:33.101Z,44.00
2019-04-05T20:22:03.402Z,45.70
2019-04-05T20:24:33.585Z,45.73
2019-04-05T20:27:03.884Z,46.10
2019-04-05T20:29:34.153Z,45.40
2019-04-05T20:32:04.432Z,45.98
2019-04-05T20:34:34.684Z,42.50
2019-04-05T20:37:04.930Z,47.10
2019-04-05T20:39:35.048Z,45.25
2019-04-05T20:42:05.314Z,48.33
2019-04-05T20:44:35.474Z,49.03
2019-04-05T20:47:05.638Z,46.20
2019-04-05T20:49:35.810Z,49.35
2019-04-05T20:52:10.117Z,47.70
2019-04-05T20:54:40.206Z,49.08
2019-04-05T20:57:10.360Z,47.08
2019-04-05T20:59:40.460Z,47.65
2019-04-05T21:02:10.638Z,47.73
2019-04-05T21:04:40.762Z,47.70
2019-04-05T21:07:10.980Z,46.15
2019-04-05T21:09:41.148Z,45.30
2019-04-05T21:12:11.384Z,48.33
2019-04-05T21:14:41.528Z,46.45
2019-04-05T21:17:11.742Z,45.52
2019-04-05T21:19:41.916Z,44.35
2019-04-05T21:22:12.104Z,44.60
2019-04-05T21:24:42.357Z,47.25
2019-04-05T21:27:12.739Z,51.25
2019-04-05T21:29:43.154Z,47.67
2019-04-05T21:32:13.299Z,47.10
2019-04-05T21:34:43.528Z,50.05
2019-04-05T21:37:13.678Z,48.00
2019-04-05T21:39:43.866Z,47.62
2019-04-05T21:42:14.129Z,46.10
2019-04-05T21:44:46.327Z,45.45
2019-04-05T21:47:16.249Z,46.73
2019-04-05T21:49:46.451Z,46.83
2019-04-05T21:52:16.589Z,45.30
2019-04-05T21:54:47.853Z,46.05
2019-04-05T21:57:18.197Z,43.70
2019-04-05T21:59:48.376Z,44.65
2019-04-05T22:02:18.500Z,46.05
2019-04-05T22:04:49.829Z,45.33
2019-04-05T22:07:20.082Z,42.25
2019-04-05T22:09:50.257Z,45.12
2019-04-05T22:12:28.937Z,45.08
2019-04-05T22:14:59.039Z,43.63
2019-04-05T22:17:29.229Z,44.20
2019-04-05T22:19:59.418Z,45.05
2019-04-05T22:22:29.574Z,44.58
2019-04-05T22:24:59.823Z,43.95
2019-04-05T22:27:29.958Z,45.73
2019-04-05T22:30:00.236Z,44.58
2019-04-05T22:32:30.445Z,41.73
2019-04-05T22:35:00.646Z,43.80
2019-04-05T22:37:30.893Z,46.33
2019-04-05T22:40:01.130Z,42.85
2019-04-05T22:42:31.288Z,45.70
2019-04-05T22:45:01.480Z,44.00
2019-04-05T22:47:31.706Z,43.55
2019-04-05T22:50:01.919Z,42.90
2019-04-05T22:52:32.066Z,45.78
2019-04-05T22:55:11.102Z,45.08
2019-04-05T22:57:34.387Z,44.55
2019-04-05T23:00:04.846Z,45.43
2019-04-05T23:02:38.470Z,43.13
2019-04-05T23:05:08.774Z,42.62
2019-04-05T23:07:38.954Z,44.25
2019-04-05T23:10:09.450Z,41.92
2019-04-05T23:12:39.619Z,44.88
2019-04-05T23:15:10.103Z,44.77
2019-04-05T23:17:40.225Z,44.42
2019-04-05T23:20:11.313Z,45.63
2019-04-05T23:22:41.706Z,48.63
2019-04-05T23:25:21.417Z,46.28
2019-04-05T23:27:43.889Z,44.98
2019-04-05T23:30:14.567Z,42.90
2019-04-05T23:32:44.706Z,44.58
2019-04-05T23:35:14.924Z,45.08
2019-04-05T23:37:45.070Z,47.17
2019-04-05T23:40:15.193Z,47.13
2019-04-05T23:42:45.379Z,45.17
2019-04-05T23:45:15.556Z,46.02
2019-04-05T23:47:45.768Z,48.15
2019-04-05T23:50:16.245Z,45.03
2019-04-05T23:52:46.421Z,45.03
2019-04-05T23:55:16.573Z,46.05
2019-04-05T23:57:46.779Z,46.83
